Ludivine F/v — FVXR — position and weather

sailwx.info

Track history (hours):
 
Tides and Currents Weather Stations Pressure Air Temp Water Temp Dewpoint Dewpoint Depression Visibility Wind Speed Wind Dir Waves Ship Positions

Ludivine F/v

Last reported at 2017-Sep-26 01:45 UTC. Time now 2017-Sep-26 02:04 UTC.
Position N 48°30' W 005°24'.

Length 16 m.

Type: Fishing. MMSI: 227988000.

Date/timePositionNaut miles runAvg speedWind from/ knotsBaromVisibWave heightAir tempDewpointWater temp
2017-Sep-26 01:45N 48°30' W 005°24'0 1.3
2017-Sep-26 01:29N 48°30' W 005°24'2 1.9
2017-Sep-26 00:26N 48°32' W 005°23'3 6.2
2017-Sep-25 23:59N 48°31' W 005°20'4 7.9
2017-Sep-25 23:30N 48°29' W 005°15'4 7.4
2017-Sep-25 23:00N 48°27' W 005°10'3 5.7
2017-Sep-25 22:30N 48°27' W 005°06'0 0.0
2017-Sep-25 22:00N 48°27' W 005°06'0 0.0
2017-Sep-25 21:30N 48°27' W 005°06'0 0.0
2017-Sep-25 21:00N 48°27' W 005°06'0 0.0
2017-Sep-25 20:30N 48°27' W 005°06'0 0.0
2017-Sep-25 20:00N 48°27' W 005°06'0 0.0
2017-Sep-25 19:30N 48°27' W 005°06'0 0.0
2017-Sep-25 19:00N 48°27' W 005°06'0 0.0
2017-Sep-25 18:30N 48°27' W 005°06'0 0.0
2017-Sep-25 18:00N 48°27' W 005°06'0 0.0
2017-Sep-25 17:30N 48°27' W 005°06'0 0.0
2017-Sep-25 17:00N 48°27' W 005°06'4 6.9
2017-Sep-25 16:30N 48°26' W 005°11'6 8.5
2017-Sep-25 15:49N 48°28' W 005°20'2 5.7
2017-Sep-25 15:26N 48°30' W 005°22'4 7.8
2017-Sep-25 14:51N 48°34' W 005°20'3 7.8
2017-Sep-25 14:27N 48°37' W 005°19'3 7.0
2017-Sep-25 13:59N 48°34' W 005°21'3 6.5
2017-Sep-25 13:30N 48°31' W 005°21'2 2.6
2017-Sep-25 12:55N 48°31' W 005°19'4 8.7
2017-Sep-25 12:30N 48°31' W 005°14'5 9.2
2017-Sep-25 12:00N 48°30' W 005°07'5 9.1
2017-Sep-25 11:30N 48°29' W 005°00'4 8.1
2017-Sep-25 11:00N 48°27' W 004°55'4 7.4
2017-Sep-25 10:30N 48°24' W 004°51'3 6.0
2017-Sep-25 10:00N 48°22' W 004°48'1 1.7
2017-Sep-25 09:30N 48°22' W 004°47'0 0.0
2017-Sep-25 09:00N 48°22' W 004°47'0 0.0
2017-Sep-24 17:42N 48°22' W 004°47'1 5.9
2017-Sep-24 17:31N 48°22' W 004°48'4 8.7
2017-Sep-24 17:00N 48°25' W 004°53'5 9.0
2017-Sep-24 16:30N 48°28' W 004°58'510.9
2017-Sep-24 16:00N 48°30' W 005°06'511.0
2017-Sep-24 15:30N 48°30' W 005°14'5 9.1
2017-Sep-24 15:00N 48°30' W 005°21'1 0.1
2017-Sep-24 06:07N 48°30' W 005°20'4 8.4
2017-Sep-24 05:40N 48°27' W 005°16'8 9.1
2017-Sep-24 04:44N 48°22' W 005°06'2 8.2
2017-Sep-24 04:30N 48°22' W 005°03'4 8.1
2017-Sep-24 04:00N 48°21' W 004°57'3 6.8
2017-Sep-24 03:31N 48°21' W 004°52'3 6.2
2017-Sep-24 03:00N 48°22' W 004°48'  
2017-Sep-19 14:21N 48°22' W 004°47'0 0.0
2017-Sep-19 07:18N 48°22' W 004°47'0 0.0
2017-Sep-19 07:00N 48°22' W 004°47'0 0.0
2017-Sep-19 06:30N 48°22' W 004°47'0 0.0
2017-Sep-19 06:00N 48°22' W 004°47'0 0.0
2017-Sep-19 05:30N 48°22' W 004°47'0 0.0
2017-Sep-18 10:00N 48°22' W 004°47'0 0.2
2017-Sep-18 09:30N 48°22' W 004°47'2 4.8
2017-Sep-18 09:00N 48°22' W 004°50'4 8.0
2017-Sep-18 08:30N 48°21' W 004°56'4 7.9
2017-Sep-18 07:59N 48°21' W 005°02'7 8.9
2017-Sep-18 07:14N 48°24' W 005°11'3 9.4
2017-Sep-18 06:53N 48°26' W 005°15'7 1.0
2017-Sep-17 23:31N 48°28' W 005°26'0 8.7
2017-Sep-17 23:30N 48°28' W 005°26'4 8.5
2017-Sep-17 23:00N 48°28' W 005°20'4 8.5
2017-Sep-17 22:30N 48°27' W 005°13'4 8.6
2017-Sep-17 22:00N 48°27' W 005°07'1 1.0
2017-Sep-17 21:30N 48°27' W 005°06'0 0.0
2017-Sep-17 21:00N 48°27' W 005°06'0 0.0
2017-Sep-17 20:29N 48°27' W 005°06'0 0.0
2017-Sep-17 20:00N 48°27' W 005°06'0 0.0
2017-Sep-17 19:30N 48°27' W 005°06'0 0.0
2017-Sep-17 18:59N 48°27' W 005°06'0 0.0
2017-Sep-17 18:30N 48°27' W 005°06'0 0.0
2017-Sep-17 17:59N 48°27' W 005°06'0 0.0
2017-Sep-17 17:29N 48°27' W 005°06'0 0.0
2017-Sep-17 17:00N 48°27' W 005°06'3 5.3
2017-Sep-17 16:30N 48°26' W 005°10'4 8.2
2017-Sep-17 15:59N 48°29' W 005°15'6 0.5
2017-Sep-17 03:22N 48°34' W 005°16'3 7.5
2017-Sep-17 02:59N 48°33' W 005°12'4 7.3
2017-Sep-17 02:30N 48°31' W 005°08'4 7.9
2017-Sep-17 02:00N 48°29' W 005°03'4 8.0
2017-Sep-17 01:30N 48°27' W 004°57'4 8.4
2017-Sep-17 01:00N 48°25' W 004°52'4 8.0
2017-Sep-17 00:30N 48°22' W 004°48'1 0.1
2017-Sep-16 11:32N 48°22' W 004°47'0 0.7
2017-Sep-16 11:30N 48°22' W 004°47'0 0.2
2017-Sep-16 11:00N 48°22' W 004°47'0 0.0
2017-Sep-16 10:30N 48°22' W 004°47'3 5.9
2017-Sep-16 10:00N 48°22' W 004°51'5 9.5
2017-Sep-16 09:30N 48°21' W 004°58'8 8.5
2017-Sep-16 08:31N 48°24' W 005°10'4 9.0
2017-Sep-16 08:02N 48°26' W 005°16'2 8.7
2017-Sep-16 07:49N 48°27' W 005°18'  
Track history (hours):
 
Tides and Currents Weather Stations Pressure Air Temp Water Temp Dewpoint Dewpoint Depression Visibility Wind Speed Wind Dir Waves Ship Positions

Ludivine F/v

Last reported at 2017-Sep-26 01:45 UTC. Time now 2017-Sep-26 02:04 UTC.
Position N 48°30' W 005°24'.

Length 16 m.

Type: Fishing. MMSI: 227988000.

Date/timePositionNaut miles runAvg speedWind from/ knotsBaromVisibWave heightAir tempDewpointWater temp
2017-Sep-26 01:45N 48°30' W 005°24'0 1.3
2017-Sep-26 01:29N 48°30' W 005°24'2 1.9
2017-Sep-26 00:26N 48°32' W 005°23'3 6.2
2017-Sep-25 23:59N 48°31' W 005°20'4 7.9
2017-Sep-25 23:30N 48°29' W 005°15'4 7.4
2017-Sep-25 23:00N 48°27' W 005°10'3 5.7
2017-Sep-25 22:30N 48°27' W 005°06'0 0.0
2017-Sep-25 22:00N 48°27' W 005°06'0 0.0
2017-Sep-25 21:30N 48°27' W 005°06'0 0.0
2017-Sep-25 21:00N 48°27' W 005°06'0 0.0
2017-Sep-25 20:30N 48°27' W 005°06'0 0.0
2017-Sep-25 20:00N 48°27' W 005°06'0 0.0
2017-Sep-25 19:30N 48°27' W 005°06'0 0.0
2017-Sep-25 19:00N 48°27' W 005°06'0 0.0
2017-Sep-25 18:30N 48°27' W 005°06'0 0.0
2017-Sep-25 18:00N 48°27' W 005°06'0 0.0
2017-Sep-25 17:30N 48°27' W 005°06'0 0.0
2017-Sep-25 17:00N 48°27' W 005°06'4 6.9
2017-Sep-25 16:30N 48°26' W 005°11'6 8.5
2017-Sep-25 15:49N 48°28' W 005°20'2 5.7
2017-Sep-25 15:26N 48°30' W 005°22'4 7.8
2017-Sep-25 14:51N 48°34' W 005°20'3 7.8
2017-Sep-25 14:27N 48°37' W 005°19'3 7.0
2017-Sep-25 13:59N 48°34' W 005°21'3 6.5
2017-Sep-25 13:30N 48°31' W 005°21'2 2.6
2017-Sep-25 12:55N 48°31' W 005°19'4 8.7
2017-Sep-25 12:30N 48°31' W 005°14'5 9.2
2017-Sep-25 12:00N 48°30' W 005°07'5 9.1
2017-Sep-25 11:30N 48°29' W 005°00'4 8.1
2017-Sep-25 11:00N 48°27' W 004°55'4 7.4
2017-Sep-25 10:30N 48°24' W 004°51'3 6.0
2017-Sep-25 10:00N 48°22' W 004°48'1 1.7
2017-Sep-25 09:30N 48°22' W 004°47'0 0.0
2017-Sep-25 09:00N 48°22' W 004°47'0 0.0
2017-Sep-24 17:42N 48°22' W 004°47'1 5.9
2017-Sep-24 17:31N 48°22' W 004°48'4 8.7
2017-Sep-24 17:00N 48°25' W 004°53'5 9.0
2017-Sep-24 16:30N 48°28' W 004°58'510.9
2017-Sep-24 16:00N 48°30' W 005°06'511.0
2017-Sep-24 15:30N 48°30' W 005°14'5 9.1
2017-Sep-24 15:00N 48°30' W 005°21'1 0.1
2017-Sep-24 06:07N 48°30' W 005°20'4 8.4
2017-Sep-24 05:40N 48°27' W 005°16'8 9.1
2017-Sep-24 04:44N 48°22' W 005°06'2 8.2
2017-Sep-24 04:30N 48°22' W 005°03'4 8.1
2017-Sep-24 04:00N 48°21' W 004°57'3 6.8
2017-Sep-24 03:31N 48°21' W 004°52'3 6.2
2017-Sep-24 03:00N 48°22' W 004°48'  
2017-Sep-19 14:21N 48°22' W 004°47'0 0.0
2017-Sep-19 07:18N 48°22' W 004°47'0 0.0
2017-Sep-19 07:00N 48°22' W 004°47'0 0.0
2017-Sep-19 06:30N 48°22' W 004°47'0 0.0
2017-Sep-19 06:00N 48°22' W 004°47'0 0.0
2017-Sep-19 05:30N 48°22' W 004°47'0 0.0
2017-Sep-18 10:00N 48°22' W 004°47'0 0.2
2017-Sep-18 09:30N 48°22' W 004°47'2 4.8
2017-Sep-18 09:00N 48°22' W 004°50'4 8.0
2017-Sep-18 08:30N 48°21' W 004°56'4 7.9
2017-Sep-18 07:59N 48°21' W 005°02'7 8.9
2017-Sep-18 07:14N 48°24' W 005°11'3 9.4
2017-Sep-18 06:53N 48°26' W 005°15'7 1.0
2017-Sep-17 23:31N 48°28' W 005°26'0 8.7
2017-Sep-17 23:30N 48°28' W 005°26'4 8.5
2017-Sep-17 23:00N 48°28' W 005°20'4 8.5
2017-Sep-17 22:30N 48°27' W 005°13'4 8.6
2017-Sep-17 22:00N 48°27' W 005°07'1 1.0
2017-Sep-17 21:30N 48°27' W 005°06'0 0.0
2017-Sep-17 21:00N 48°27' W 005°06'0 0.0
2017-Sep-17 20:29N 48°27' W 005°06'0 0.0
2017-Sep-17 20:00N 48°27' W 005°06'0 0.0
2017-Sep-17 19:30N 48°27' W 005°06'0 0.0
2017-Sep-17 18:59N 48°27' W 005°06'0 0.0
2017-Sep-17 18:30N 48°27' W 005°06'0 0.0
2017-Sep-17 17:59N 48°27' W 005°06'0 0.0
2017-Sep-17 17:29N 48°27' W 005°06'0 0.0
2017-Sep-17 17:00N 48°27' W 005°06'3 5.3
2017-Sep-17 16:30N 48°26' W 005°10'4 8.2
2017-Sep-17 15:59N 48°29' W 005°15'6 0.5
2017-Sep-17 03:22N 48°34' W 005°16'3 7.5
2017-Sep-17 02:59N 48°33' W 005°12'4 7.3
2017-Sep-17 02:30N 48°31' W 005°08'4 7.9
2017-Sep-17 02:00N 48°29' W 005°03'4 8.0
2017-Sep-17 01:30N 48°27' W 004°57'4 8.4
2017-Sep-17 01:00N 48°25' W 004°52'4 8.0
2017-Sep-17 00:30N 48°22' W 004°48'1 0.1
2017-Sep-16 11:32N 48°22' W 004°47'0 0.7
2017-Sep-16 11:30N 48°22' W 004°47'0 0.2
2017-Sep-16 11:00N 48°22' W 004°47'0 0.0
2017-Sep-16 10:30N 48°22' W 004°47'3 5.9
2017-Sep-16 10:00N 48°22' W 004°51'5 9.5
2017-Sep-16 09:30N 48°21' W 004°58'8 8.5
2017-Sep-16 08:31N 48°24' W 005°10'4 9.0
2017-Sep-16 08:02N 48°26' W 005°16'2 8.7
2017-Sep-16 07:49N 48°27' W 005°18'  

Dump ship's entire track history